createdAt,value
2023-05-14T00:00:22.865Z,1015.08
2023-05-14T00:00:53.455Z,1015.08
2023-05-14T00:01:23.941Z,1015.07
2023-05-14T00:01:54.944Z,1015.07
2023-05-14T00:02:25.499Z,1015.07
2023-05-14T00:02:56.183Z,1015.07
2023-05-14T00:03:26.911Z,1015.06
2023-05-14T00:03:57.559Z,1015.05
2023-05-14T00:04:28.058Z,1015.05
2023-05-14T00:04:58.583Z,1015.03
2023-05-14T00:05:29.078Z,1015.03
2023-05-14T00:05:59.580Z,1015.03
2023-05-14T00:06:30.580Z,1015.02
2023-05-14T00:07:01.108Z,1015.02
2023-05-14T00:07:31.602Z,1015.01
2023-05-14T00:08:02.092Z,1015.02
2023-05-14T00:08:33.087Z,1015.00
2023-05-14T00:09:03.617Z,1015.01
2023-05-14T00:09:34.113Z,1015.00
2023-05-14T00:10:05.175Z,1014.99
2023-05-14T00:10:35.649Z,1015.00
2023-05-14T00:11:06.181Z,1014.99
2023-05-14T00:11:36.664Z,1014.99
2023-05-14T00:12:07.655Z,1014.99
2023-05-14T00:12:38.149Z,1014.98
2023-05-14T00:13:08.638Z,1014.96
2023-05-14T00:13:39.640Z,1014.97
2023-05-14T00:14:10.158Z,1014.96
2023-05-14T00:14:40.665Z,1014.96
2023-05-14T00:15:11.172Z,1014.95
2023-05-14T00:15:41.747Z,1014.95
2023-05-14T00:16:12.341Z,1014.94
2023-05-14T00:16:42.814Z,1014.93
2023-05-14T00:17:13.815Z,1014.92
2023-05-14T00:17:44.374Z,1014.91
2023-05-14T00:18:14.841Z,1014.90
2023-05-14T00:18:45.834Z,1014.89
2023-05-14T00:19:16.831Z,1014.89
2023-05-14T00:19:47.310Z,1014.89
2023-05-14T00:20:18.391Z,1014.88
2023-05-14T00:20:48.899Z,1014.89
2023-05-14T00:21:19.413Z,1014.89
2023-05-14T00:21:50.382Z,1014.89
2023-05-14T00:22:21.401Z,1014.89
2023-05-14T00:22:51.915Z,1014.89
2023-05-14T00:23:22.437Z,1014.88
2023-05-14T00:23:52.945Z,1014.89
2023-05-14T00:24:23.444Z,1014.89
2023-05-14T00:24:54.433Z,1014.89
2023-05-14T00:25:24.989Z,1014.90
2023-05-14T00:25:55.465Z,1014.90
2023-05-14T00:26:25.967Z,1014.90
2023-05-14T00:26:56.464Z,1014.90
2023-05-14T00:27:26.968Z,1014.89
2023-05-14T00:27:57.943Z,1014.89
2023-05-14T00:28:28.442Z,1014.90
2023-05-14T00:28:59.432Z,1014.91
2023-05-14T00:29:30.436Z,1014.92
2023-05-14T00:30:00.943Z,1014.93
2023-05-14T00:30:32.050Z,1014.93
2023-05-14T00:31:02.586Z,1014.93
2023-05-14T00:31:33.135Z,1014.92
2023-05-14T00:32:03.576Z,1014.92
2023-05-14T00:32:34.674Z,1014.91
2023-05-14T00:33:05.209Z,1014.90
2023-05-14T00:33:35.677Z,1014.90
2023-05-14T00:34:06.168Z,1014.89
2023-05-14T00:34:37.183Z,1014.88
2023-05-14T00:35:07.666Z,1014.87
2023-05-14T00:35:38.698Z,1014.86
2023-05-14T00:36:09.216Z,1014.85
2023-05-14T00:36:39.700Z,1014.84
2023-05-14T00:37:10.711Z,1014.83
2023-05-14T00:37:41.222Z,1014.83
2023-05-14T00:38:11.720Z,1014.82
2023-05-14T00:38:42.722Z,1014.81
2023-05-14T00:39:13.225Z,1014.81
2023-05-14T00:39:43.720Z,1014.80
2023-05-14T00:40:14.716Z,1014.80
2023-05-14T00:40:45.276Z,1014.80
2023-05-14T00:41:15.737Z,1014.80
2023-05-14T00:41:46.237Z,1014.80
2023-05-14T00:42:17.263Z,1014.81
2023-05-14T00:42:47.779Z,1014.81
2023-05-14T00:43:18.295Z,1014.80
2023-05-14T00:43:48.788Z,1014.80
2023-05-14T00:44:19.795Z,1014.79
2023-05-14T00:44:50.809Z,1014.79
2023-05-14T00:45:21.772Z,1014.78
2023-05-14T00:45:52.809Z,1014.77
2023-05-14T00:46:23.314Z,1014.77
2023-05-14T00:46:53.897Z,1014.76
2023-05-14T00:47:24.929Z,1014.75
2023-05-14T00:47:55.447Z,1014.75
2023-05-14T00:48:25.922Z,1014.75
2023-05-14T00:48:56.404Z,1014.74
2023-05-14T00:49:27.424Z,1014.76
2023-05-14T00:49:58.492Z,1014.75
2023-05-14T00:50:28.971Z,1014.75
2023-05-14T00:50:59.541Z,1014.76
2023-05-14T00:51:30.052Z,1014.77
2023-05-14T00:52:00.541Z,1014.79
2023-05-14T00:52:31.545Z,1014.80
2023-05-14T00:53:02.062Z,1014.81
2023-05-14T00:53:32.559Z,1014.82
2023-05-14T00:54:03.059Z,1014.83
2023-05-14T00:54:33.558Z,1014.82
2023-05-14T00:55:04.556Z,1014.82
2023-05-14T00:55:35.054Z,1014.81
2023-05-14T00:56:05.627Z,1014.80
2023-05-14T00:56:36.088Z,1014.79
2023-05-14T00:57:07.094Z,1014.78
2023-05-14T00:57:37.598Z,1014.78
2023-05-14T00:58:08.096Z,1014.76
2023-05-14T00:58:38.587Z,1014.75
2023-05-14T00:59:09.583Z,1014.74
2023-05-14T00:59:40.560Z,1014.73
2023-05-14T01:00:11.068Z,1014.72
2023-05-14T01:00:41.586Z,1014.71
2023-05-14T01:01:12.166Z,1014.70
2023-05-14T01:01:42.691Z,1014.69
2023-05-14T01:02:13.188Z,1014.68
2023-05-14T01:02:43.762Z,1014.68
2023-05-14T01:03:14.410Z,1014.67
2023-05-14T01:03:45.158Z,1014.66
2023-05-14T01:04:15.718Z,1014.65
2023-05-14T01:04:46.224Z,1014.64
2023-05-14T01:05:16.720Z,1014.64
2023-05-14T01:05:47.233Z,1014.63
2023-05-14T01:06:17.785Z,1014.61
2023-05-14T01:06:48.279Z,1014.60
2023-05-14T01:07:19.280Z,1014.59
2023-05-14T01:07:49.784Z,1014.58
2023-05-14T01:08:20.790Z,1014.56
2023-05-14T01:08:51.305Z,1014.55
2023-05-14T01:09:21.819Z,1014.54
2023-05-14T01:09:52.316Z,1014.54
2023-05-14T01:10:22.933Z,1014.53
2023-05-14T01:10:53.463Z,1014.54
2023-05-14T01:11:24.506Z,1014.54
2023-05-14T01:11:54.995Z,1014.54
2023-05-14T01:12:25.484Z,1014.55
2023-05-14T01:12:56.496Z,1014.55
2023-05-14T01:13:27.024Z,1014.55
2023-05-14T01:13:57.490Z,1014.55
2023-05-14T01:14:28.485Z,1014.56
2023-05-14T01:14:58.989Z,1014.55
2023-05-14T01:15:29.528Z,1014.55
2023-05-14T01:16:00.074Z,1014.54
2023-05-14T01:16:30.727Z,1014.55
2023-05-14T01:17:01.213Z,1014.54
2023-05-14T01:17:32.239Z,1014.54
2023-05-14T01:18:02.767Z,1014.53
2023-05-14T01:18:33.248Z,1014.54
2023-05-14T01:19:04.249Z,1014.54
2023-05-14T01:19:35.231Z,1014.54
2023-05-14T01:20:05.750Z,1014.54
2023-05-14T01:20:36.528Z,1014.54
2023-05-14T01:21:07.009Z,1014.54
2023-05-14T01:21:38.055Z,1014.54
2023-05-14T01:22:09.019Z,1014.54
2023-05-14T01:22:39.513Z,1014.54
2023-05-14T01:23:10.000Z,1014.53
2023-05-14T01:23:41.011Z,1014.53
2023-05-14T01:24:11.515Z,1014.54
2023-05-14T01:24:42.522Z,1014.54
2023-05-14T01:25:13.015Z,1014.53
2023-05-14T01:25:44.032Z,1014.53
2023-05-14T01:26:15.027Z,1014.53
2023-05-14T01:26:45.601Z,1014.53
2023-05-14T01:27:16.091Z,1014.52
2023-05-14T01:27:46.608Z,1014.52
2023-05-14T01:28:17.101Z,1014.52
2023-05-14T01:28:48.109Z,1014.52
2023-05-14T01:29:18.609Z,1014.53
2023-05-14T01:29:49.113Z,1014.53
2023-05-14T01:30:20.107Z,1014.52
2023-05-14T01:30:50.617Z,1014.52
2023-05-14T01:31:21.614Z,1014.52
2023-05-14T01:31:52.212Z,1014.52
2023-05-14T01:32:22.817Z,1014.51
2023-05-14T01:32:53.334Z,1014.50
2023-05-14T01:33:23.811Z,1014.49
2023-05-14T01:33:54.808Z,1014.49
2023-05-14T01:34:25.805Z,1014.48
2023-05-14T01:34:56.784Z,1014.48
2023-05-14T01:35:28.565Z,1014.48
2023-05-14T01:35:58.529Z,1014.48
2023-05-14T01:36:29.036Z,1014.48
2023-05-14T01:36:59.578Z,1014.48
2023-05-14T01:37:30.083Z,1014.48
2023-05-14T01:38:00.593Z,1014.49
2023-05-14T01:38:31.089Z,1014.49
2023-05-14T01:39:01.602Z,1014.50
2023-05-14T01:39:32.122Z,1014.50
2023-05-14T01:40:02.621Z,1014.50
2023-05-14T01:40:33.157Z,1014.50
2023-05-14T01:41:03.633Z,1014.51
2023-05-14T01:41:34.139Z,1014.51
2023-05-14T01:42:04.834Z,1014.51
2023-05-14T01:42:35.280Z,1014.51
2023-05-14T01:43:05.835Z,1014.51
2023-05-14T01:43:36.844Z,1014.52
2023-05-14T01:44:07.350Z,1014.51
2023-05-14T01:44:37.850Z,1014.51
2023-05-14T01:45:08.856Z,1014.51
2023-05-14T01:45:39.382Z,1014.51
2023-05-14T01:46:09.937Z,1014.50
2023-05-14T01:46:40.581Z,1014.51
2023-05-14T01:47:11.184Z,1014.51
2023-05-14T01:47:41.694Z,1014.51
2023-05-14T01:48:13.065Z,1014.51
2023-05-14T01:48:43.058Z,1014.50
2023-05-14T01:49:13.570Z,1014.49
2023-05-14T01:49:44.086Z,1014.48
2023-05-14T01:50:14.583Z,1014.46
2023-05-14T01:50:45.090Z,1014.45
2023-05-14T01:51:15.602Z,1014.45
2023-05-14T01:51:46.614Z,1014.44
2023-05-14T01:52:17.168Z,1014.43
2023-05-14T01:52:47.629Z,1014.43
2023-05-14T01:53:18.628Z,1014.43
2023-05-14T01:53:49.122Z,1014.43
2023-05-14T01:54:20.125Z,1014.42
2023-05-14T01:54:50.630Z,1014.42
2023-05-14T01:55:21.607Z,1014.42
2023-05-14T01:55:52.110Z,1014.42
2023-05-14T01:56:22.629Z,1014.41
2023-05-14T01:56:53.645Z,1014.40
2023-05-14T01:57:24.161Z,1014.40
2023-05-14T01:57:54.657Z,1014.40
2023-05-14T01:58:25.162Z,1014.41
2023-05-14T01:58:55.646Z,1014.40
2023-05-14T01:59:26.139Z,1014.40
2023-05-14T01:59:56.646Z,1014.41
2023-05-14T02:00:27.145Z,1014.41
2023-05-14T02:00:58.169Z,1014.40
2023-05-14T02:01:28.685Z,1014.40
2023-05-14T02:01:59.211Z,1014.41
2023-05-14T02:02:29.747Z,1014.41
2023-05-14T02:03:00.315Z,1014.41
2023-05-14T02:03:30.774Z,1014.42
2023-05-14T02:04:01.834Z,1014.42
2023-05-14T02:04:32.333Z,1014.42
2023-05-14T02:05:03.911Z,1014.42
2023-05-14T02:05:33.614Z,1014.42
2023-05-14T02:06:04.105Z,1014.41
2023-05-14T02:06:35.106Z,1014.41
2023-05-14T02:07:05.619Z,1014.40
2023-05-14T02:07:36.275Z,1014.40
2023-05-14T02:08:06.766Z,1014.40
2023-05-14T02:08:37.285Z,1014.39
2023-05-14T02:09:07.789Z,1014.39
2023-05-14T02:09:38.304Z,1014.40
2023-05-14T02:10:08.797Z,1014.40
2023-05-14T02:10:39.790Z,1014.41
2023-05-14T02:11:10.306Z,1014.41
2023-05-14T02:11:40.820Z,1014.41
2023-05-14T02:12:11.306Z,1014.40
2023-05-14T02:12:41.893Z,1014.41
2023-05-14T02:13:12.365Z,1014.40
2023-05-14T02:13:43.385Z,1014.40
2023-05-14T02:14:13.919Z,1014.39
2023-05-14T02:14:44.394Z,1014.38
2023-05-14T02:15:15.409Z,1014.38
2023-05-14T02:15:45.969Z,1014.36
2023-05-14T02:16:16.506Z,1014.36
2023-05-14T02:16:47.000Z,1014.37
2023-05-14T02:17:17.999Z,1014.37
2023-05-14T02:17:48.723Z,1014.38
2023-05-14T02:18:19.189Z,1014.40
2023-05-14T02:18:50.234Z,1014.42
2023-05-14T02:19:20.726Z,1014.43
2023-05-14T02:19:51.248Z,1014.44
2023-05-14T02:20:21.932Z,1014.46
2023-05-14T02:20:52.515Z,1014.47
2023-05-14T02:21:23.020Z,1014.49
2023-05-14T02:21:53.529Z,1014.50
2023-05-14T02:22:24.534Z,1014.50
2023-05-14T02:22:55.108Z,1014.51
2023-05-14T02:23:34.193Z,1014.52
2023-05-14T02:23:57.453Z,1014.52
2023-05-14T02:24:26.951Z,1014.53
2023-05-14T02:24:57.455Z,1014.54
2023-05-14T02:25:27.988Z,1014.54
2023-05-14T02:25:58.485Z,1014.54
2023-05-14T02:26:28.996Z,1014.54
2023-05-14T02:26:59.857Z,1014.55
2023-05-14T02:27:30.831Z,1014.55
2023-05-14T02:28:01.383Z,1014.55
2023-05-14T02:28:31.876Z,1014.55
2023-05-14T02:29:02.365Z,1014.55
2023-05-14T02:29:33.349Z,1014.55
2023-05-14T02:30:03.867Z,1014.54
2023-05-14T02:30:34.365Z,1014.54
2023-05-14T02:31:04.950Z,1014.54
2023-05-14T02:31:35.528Z,1014.54
2023-05-14T02:32:06.038Z,1014.54
2023-05-14T02:32:37.114Z,1014.54
2023-05-14T02:33:07.732Z,1014.54
2023-05-14T02:33:38.254Z,1014.52
2023-05-14T02:34:09.223Z,1014.51
2023-05-14T02:34:39.736Z,1014.49
2023-05-14T02:35:10.736Z,1014.48
2023-05-14T02:35:41.220Z,1014.46
2023-05-14T02:36:12.592Z,1014.45
2023-05-14T02:36:42.574Z,1014.44
2023-05-14T02:37:13.582Z,1014.42
2023-05-14T02:37:44.085Z,1014.41
2023-05-14T02:38:14.643Z,1014.39
2023-05-14T02:38:45.154Z,1014.39
2023-05-14T02:39:15.661Z,1014.39
2023-05-14T02:39:46.159Z,1014.38
2023-05-14T02:40:17.155Z,1014.39
2023-05-14T02:40:47.676Z,1014.40
2023-05-14T02:41:18.166Z,1014.41
2023-05-14T02:41:48.662Z,1014.40
2023-05-14T02:42:19.661Z,1014.41
2023-05-14T02:42:50.642Z,1014.40
2023-05-14T02:43:21.209Z,1014.40
2023-05-14T02:43:51.675Z,1014.39
2023-05-14T02:44:22.193Z,1014.38
2023-05-14T02:44:53.172Z,1014.37
2023-05-14T02:45:24.168Z,1014.37
2023-05-14T02:45:55.157Z,1014.37
2023-05-14T02:46:25.763Z,1014.38
2023-05-14T02:46:56.268Z,1014.40
2023-05-14T02:47:26.816Z,1014.41
2023-05-14T02:47:57.332Z,1014.42
2023-05-14T02:48:27.836Z,1014.41
2023-05-14T02:48:58.321Z,1014.41
2023-05-14T02:49:29.316Z,1014.39
2023-05-14T02:49:59.812Z,1014.39
2023-05-14T02:50:30.311Z,1014.38
2023-05-14T02:51:01.304Z,1014.37
2023-05-14T02:51:32.289Z,1014.36
2023-05-14T02:52:03.291Z,1014.35
2023-05-14T02:52:33.789Z,1014.34
2023-05-14T02:53:04.792Z,1014.33
2023-05-14T02:53:35.578Z,1014.33
2023-05-14T02:54:06.083Z,1014.33
2023-05-14T02:54:36.575Z,1014.33
2023-05-14T02:55:07.559Z,1014.34
2023-05-14T02:55:38.572Z,1014.35
2023-05-14T02:56:09.073Z,1014.35
2023-05-14T02:56:39.565Z,1014.35
2023-05-14T02:57:10.577Z,1014.36
2023-05-14T02:57:41.078Z,1014.35
2023-05-14T02:58:11.582Z,1014.35
2023-05-14T02:58:42.743Z,1014.34
2023-05-14T02:59:13.174Z,1014.34
2023-05-14T02:59:43.954Z,1014.33
2023-05-14T03:00:14.700Z,1014.33
2023-05-14T03:00:45.262Z,1014.33
2023-05-14T03:01:15.694Z,1014.33
2023-05-14T03:01:46.672Z,1014.32
2023-05-14T03:02:17.515Z,1014.32
2023-05-14T03:02:48.198Z,1014.32
2023-05-14T03:03:18.752Z,1014.32
2023-05-14T03:03:49.385Z,1014.32
2023-05-14T03:04:20.182Z,1014.32
2023-05-14T03:04:50.705Z,1014.31
2023-05-14T03:05:21.217Z,1014.30
2023-05-14T03:05:51.693Z,1014.29
2023-05-14T03:06:22.703Z,1014.29
2023-05-14T03:06:53.718Z,1014.28
2023-05-14T03:07:24.695Z,1014.27
2023-05-14T03:07:55.220Z,1014.26
2023-05-14T03:08:27.107Z,1014.24
2023-05-14T03:08:57.123Z,1014.23
2023-05-14T03:09:27.619Z,1014.22
2023-05-14T03:09:58.621Z,1014.20
2023-05-14T03:10:29.611Z,1014.19
2023-05-14T03:11:00.632Z,1014.18
2023-05-14T03:11:31.099Z,1014.18
2023-05-14T03:12:02.119Z,1014.18
2023-05-14T03:12:32.610Z,1014.18
2023-05-14T03:13:03.093Z,1014.18
2023-05-14T03:13:34.099Z,1014.19
2023-05-14T03:14:04.665Z,1014.19
2023-05-14T03:14:35.149Z,1014.18
2023-05-14T03:15:05.641Z,1014.18
2023-05-14T03:15:36.659Z,1014.18
2023-05-14T03:16:07.152Z,1014.17
2023-05-14T03:16:38.202Z,1014.17
2023-05-14T03:17:08.795Z,1014.16
2023-05-14T03:17:39.409Z,1014.16
2023-05-14T03:18:09.977Z,1014.16
2023-05-14T03:18:40.501Z,1014.16
2023-05-14T03:19:11.620Z,1014.16
2023-05-14T03:19:42.078Z,1014.16
2023-05-14T03:20:13.119Z,1014.16
2023-05-14T03:20:43.098Z,1014.16
2023-05-14T03:21:13.619Z,1014.16
2023-05-14T03:21:44.619Z,1014.16
2023-05-14T03:22:15.086Z,1014.16
2023-05-14T03:22:46.092Z,1014.17
2023-05-14T03:23:16.611Z,1014.17
2023-05-14T03:23:47.599Z,1014.17
2023-05-14T03:24:18.169Z,1014.17
2023-05-14T03:24:48.658Z,1014.16
2023-05-14T03:25:19.165Z,1014.16
2023-05-14T03:25:50.159Z,1014.16
2023-05-14T03:26:20.671Z,1014.15
2023-05-14T03:26:51.160Z,1014.15
2023-05-14T03:27:21.656Z,1014.14
2023-05-14T03:27:52.654Z,1014.15
2023-05-14T03:28:23.172Z,1014.15
2023-05-14T03:28:53.642Z,1014.16
2023-05-14T03:29:24.698Z,1014.16
2023-05-14T03:29:55.192Z,1014.17
2023-05-14T03:30:26.012Z,1014.17
2023-05-14T03:30:56.270Z,1014.18
2023-05-14T03:31:26.842Z,1014.19
2023-05-14T03:31:57.392Z,1014.19
2023-05-14T03:32:28.412Z,1014.20
2023-05-14T03:32:58.898Z,1014.20
2023-05-14T03:33:29.398Z,1014.21
2023-05-14T03:33:59.890Z,1014.22
2023-05-14T03:34:30.961Z,1014.23
2023-05-14T03:35:01.457Z,1014.23
2023-05-14T03:35:32.463Z,1014.24
2023-05-14T03:36:03.618Z,1014.24
2023-05-14T03:36:33.590Z,1014.24
2023-05-14T03:37:04.590Z,1014.25
2023-05-14T03:37:35.071Z,1014.24
2023-05-14T03:38:06.067Z,1014.24
2023-05-14T03:38:37.064Z,1014.23
2023-05-14T03:39:07.572Z,1014.23
2023-05-14T03:39:38.108Z,1014.22
2023-05-14T03:40:08.594Z,1014.22
2023-05-14T03:40:39.105Z,1014.22
2023-05-14T03:41:09.612Z,1014.21
2023-05-14T03:41:40.094Z,1014.21
2023-05-14T03:42:10.600Z,1014.20
2023-05-14T03:42:41.105Z,1014.20
2023-05-14T03:43:11.697Z,1014.19
2023-05-14T03:43:42.134Z,1014.19
2023-05-14T03:44:13.143Z,1014.18
2023-05-14T03:44:43.700Z,1014.17
2023-05-14T03:45:14.172Z,1014.17
2023-05-14T03:45:44.659Z,1014.16
2023-05-14T03:46:15.664Z,1014.16
2023-05-14T03:46:46.163Z,1014.16
2023-05-14T03:47:16.666Z,1014.16
2023-05-14T03:47:47.736Z,1014.16
2023-05-14T03:48:18.438Z,1014.16
2023-05-14T03:48:49.015Z,1014.17
2023-05-14T03:49:19.524Z,1014.17
2023-05-14T03:49:50.061Z,1014.17
2023-05-14T03:50:20.618Z,1014.18
2023-05-14T03:50:51.159Z,1014.18
2023-05-14T03:51:22.170Z,1014.18
2023-05-14T03:51:52.660Z,1014.18
2023-05-14T03:52:23.636Z,1014.17
2023-05-14T03:52:54.160Z,1014.17
2023-05-14T03:53:24.654Z,1014.17
2023-05-14T03:53:55.168Z,1014.16
2023-05-14T03:54:25.659Z,1014.16
2023-05-14T03:54:56.661Z,1014.16
2023-05-14T03:55:27.166Z,1014.16
2023-05-14T03:55:57.684Z,1014.16
2023-05-14T03:56:28.176Z,1014.17
2023-05-14T03:56:59.157Z,1014.17
2023-05-14T03:57:30.175Z,1014.18
2023-05-14T03:58:00.651Z,1014.18
2023-05-14T03:58:31.648Z,1014.18
2023-05-14T03:59:02.160Z,1014.18
2023-05-14T03:59:32.655Z,1014.18
2023-05-14T04:00:03.753Z,1014.18
2023-05-14T04:00:34.206Z,1014.18
2023-05-14T04:01:04.696Z,1014.18
2023-05-14T04:01:35.194Z,1014.17
2023-05-14T04:02:06.192Z,1014.17
2023-05-14T04:02:37.219Z,1014.17
2023-05-14T04:03:07.909Z,1014.16
2023-05-14T04:03:38.602Z,1014.15
2023-05-14T04:04:09.201Z,1014.15
2023-05-14T04:04:39.803Z,1014.14
2023-05-14T04:05:10.753Z,1014.14
2023-05-14T04:05:41.283Z,1014.13
2023-05-14T04:06:12.284Z,1014.12
2023-05-14T04:06:43.264Z,1014.12
2023-05-14T04:07:13.789Z,1014.11
2023-05-14T04:07:44.269Z,1014.11
2023-05-14T04:08:15.270Z,1014.09
2023-05-14T04:08:45.800Z,1014.09
2023-05-14T04:09:16.338Z,1014.08
2023-05-14T04:09:46.957Z,1014.08
2023-05-14T04:10:17.992Z,1014.07
2023-05-14T04:10:48.467Z,1014.07
2023-05-14T04:11:19.453Z,1014.08
2023-05-14T04:11:50.461Z,1014.08
2023-05-14T04:12:20.951Z,1014.08
2023-05-14T04:12:51.963Z,1014.08
2023-05-14T04:13:22.977Z,1014.08
2023-05-14T04:13:53.457Z,1014.08
2023-05-14T04:14:23.950Z,1014.07
2023-05-14T04:14:54.944Z,1014.06
2023-05-14T04:15:25.523Z,1014.06
2023-05-14T04:15:56.029Z,1014.06
2023-05-14T04:16:26.537Z,1014.06
2023-05-14T04:16:57.684Z,1014.06
2023-05-14T04:17:27.709Z,1014.06
2023-05-14T04:17:58.268Z,1014.06
2023-05-14T04:18:28.755Z,1014.06
2023-05-14T04:18:59.308Z,1014.07
2023-05-14T04:19:29.806Z,1014.07
2023-05-14T04:20:00.287Z,1014.07
2023-05-14T04:20:30.831Z,1014.07
2023-05-14T04:21:01.313Z,1014.07
2023-05-14T04:21:32.306Z,1014.07
2023-05-14T04:22:03.292Z,1014.07
2023-05-14T04:22:34.281Z,1014.06
2023-05-14T04:23:05.280Z,1014.06
2023-05-14T04:23:36.281Z,1014.05
2023-05-14T04:24:06.774Z,1014.05
2023-05-14T04:24:37.288Z,1014.04
2023-05-14T04:25:08.271Z,1014.04
2023-05-14T04:25:38.830Z,1014.04
2023-05-14T04:26:09.335Z,1014.03
2023-05-14T04:26:39.859Z,1014.04
2023-05-14T04:27:10.371Z,1014.04
2023-05-14T04:27:40.875Z,1014.04
2023-05-14T04:28:11.855Z,1014.05
2023-05-14T04:28:42.345Z,1014.06
2023-05-14T04:29:13.351Z,1014.07
2023-05-14T04:29:43.831Z,1014.08
2023-05-14T04:30:14.340Z,1014.08
2023-05-14T04:30:45.462Z,1014.09
2023-05-14T04:31:16.025Z,1014.09
2023-05-14T04:31:46.621Z,1014.09
2023-05-14T04:32:17.159Z,1014.09
2023-05-14T04:32:47.694Z,1014.09
2023-05-14T04:33:18.282Z,1014.09
2023-05-14T04:33:48.775Z,1014.09
2023-05-14T04:34:19.784Z,1014.09
2023-05-14T04:34:50.286Z,1014.09
2023-05-14T04:35:23.305Z,1014.09
2023-05-14T04:35:52.183Z,1014.09
2023-05-14T04:36:22.686Z,1014.08
2023-05-14T04:36:53.180Z,1014.07
2023-05-14T04:37:24.201Z,1014.07
2023-05-14T04:37:54.678Z,1014.07
2023-05-14T04:38:25.268Z,1014.06
2023-05-14T04:38:56.266Z,1014.06
2023-05-14T04:39:26.777Z,1014.06
2023-05-14T04:39:57.767Z,1014.05
2023-05-14T04:40:28.252Z,1014.05
2023-05-14T04:40:59.280Z,1014.05
2023-05-14T04:41:29.753Z,1014.05
2023-05-14T04:42:00.750Z,1014.04
2023-05-14T04:42:31.756Z,1014.04
2023-05-14T04:43:02.757Z,1014.04
2023-05-14T04:43:33.726Z,1014.04
2023-05-14T04:44:04.231Z,1014.04
2023-05-14T04:44:35.217Z,1014.05
2023-05-14T04:45:06.218Z,1014.05
2023-05-14T04:45:37.218Z,1014.06
2023-05-14T04:46:07.787Z,1014.07
2023-05-14T04:46:38.347Z,1014.09
2023-05-14T04:47:08.818Z,1014.10
2023-05-14T04:47:39.908Z,1014.11
2023-05-14T04:48:10.489Z,1014.12
2023-05-14T04:48:41.008Z,1014.13
2023-05-14T04:49:11.505Z,1014.13
2023-05-14T04:49:42.003Z,1014.13
2023-05-14T04:50:12.504Z,1014.13
2023-05-14T04:50:43.479Z,1014.14
2023-05-14T04:51:14.497Z,1014.13
2023-05-14T04:51:44.977Z,1014.13
2023-05-14T04:52:15.955Z,1014.13
2023-05-14T04:52:46.963Z,1014.13
2023-05-14T04:53:17.462Z,1014.13
2023-05-14T04:53:48.457Z,1014.13
2023-05-14T04:54:18.990Z,1014.13
2023-05-14T04:54:50.033Z,1014.13
2023-05-14T04:55:20.490Z,1014.13
2023-05-14T04:55:51.497Z,1014.13
2023-05-14T04:56:22.500Z,1014.13
2023-05-14T04:56:53.018Z,1014.13
2023-05-14T04:57:23.506Z,1014.13
2023-05-14T04:57:54.017Z,1014.12
2023-05-14T04:58:24.512Z,1014.12
2023-05-14T04:58:55.018Z,1014.11
2023-05-14T04:59:25.515Z,1014.11
2023-05-14T04:59:56.013Z,1014.10
2023-05-14T05:00:26.738Z,1014.10
2023-05-14T05:00:57.388Z,1014.10
2023-05-14T05:01:27.960Z,1014.10
2023-05-14T05:01:58.431Z,1014.09
2023-05-14T05:02:29.428Z,1014.10
2023-05-14T05:03:00.704Z,1014.10
2023-05-14T05:03:31.236Z,1014.10
2023-05-14T05:04:02.312Z,1014.10
2023-05-14T05:04:32.791Z,1014.10
2023-05-14T05:05:03.790Z,1014.10
2023-05-14T05:05:34.271Z,1014.10
2023-05-14T05:06:05.302Z,1014.10
2023-05-14T05:06:35.873Z,1014.10
2023-05-14T05:07:06.368Z,1014.10
2023-05-14T05:07:37.377Z,1014.10
2023-05-14T05:08:07.886Z,1014.11
2023-05-14T05:08:38.888Z,1014.12
2023-05-14T05:09:09.377Z,1014.13
2023-05-14T05:09:40.343Z,1014.14
2023-05-14T05:10:11.341Z,1014.15
2023-05-14T05:10:42.330Z,1014.16
2023-05-14T05:11:12.837Z,1014.17
2023-05-14T05:11:43.354Z,1014.19
2023-05-14T05:12:13.848Z,1014.20
2023-05-14T05:12:44.401Z,1014.21
2023-05-14T05:13:14.847Z,1014.21
2023-05-14T05:13:45.848Z,1014.22
2023-05-14T05:14:16.348Z,1014.22
2023-05-14T05:14:46.854Z,1014.22
2023-05-14T05:15:17.834Z,1014.22
2023-05-14T05:15:48.865Z,1014.22
2023-05-14T05:16:19.870Z,1014.21
2023-05-14T05:16:50.401Z,1014.21
2023-05-14T05:17:20.925Z,1014.21
2023-05-14T05:17:51.438Z,1014.22
2023-05-14T05:18:21.881Z,1014.23
2023-05-14T05:18:52.915Z,1014.24
2023-05-14T05:19:35.595Z,1014.25
2023-05-14T05:19:55.730Z,1014.25
2023-05-14T05:20:25.465Z,1014.26
2023-05-14T05:20:56.014Z,1014.26
2023-05-14T05:21:26.501Z,1014.27
2023-05-14T05:21:57.617Z,1014.27
2023-05-14T05:22:28.124Z,1014.27
2023-05-14T05:22:58.633Z,1014.27
2023-05-14T05:23:29.159Z,1014.28
2023-05-14T05:23:59.654Z,1014.28
2023-05-14T05:24:30.160Z,1014.28
2023-05-14T05:25:00.718Z,1014.28
2023-05-14T05:25:31.170Z,1014.28
2023-05-14T05:26:02.176Z,1014.28
2023-05-14T05:26:33.169Z,1014.28
2023-05-14T05:27:04.249Z,1014.28
2023-05-14T05:27:34.744Z,1014.29
2023-05-14T05:28:05.723Z,1014.29
2023-05-14T05:28:36.718Z,1014.30
2023-05-14T05:29:07.729Z,1014.30
2023-05-14T05:29:38.225Z,1014.31
2023-05-14T05:30:08.717Z,1014.32
2023-05-14T05:30:39.715Z,1014.33
2023-05-14T05:31:10.247Z,1014.34
2023-05-14T05:31:40.750Z,1014.34
2023-05-14T05:32:11.796Z,1014.36
2023-05-14T05:32:42.281Z,1014.37
2023-05-14T05:33:13.266Z,1014.38
2023-05-14T05:33:43.775Z,1014.39
2023-05-14T05:34:14.761Z,1014.40
2023-05-14T05:34:45.740Z,1014.41
2023-05-14T05:35:16.738Z,1014.41
2023-05-14T05:35:47.713Z,1014.42
2023-05-14T05:36:18.709Z,1014.42
2023-05-14T05:36:49.712Z,1014.42
2023-05-14T05:37:20.227Z,1014.43
2023-05-14T05:37:50.708Z,1014.42
2023-05-14T05:38:21.706Z,1014.43
2023-05-14T05:38:52.679Z,1014.43
2023-05-14T05:39:23.185Z,1014.44
2023-05-14T05:39:53.686Z,1014.45
2023-05-14T05:40:24.952Z,1014.46
2023-05-14T05:40:55.606Z,1014.46
2023-05-14T05:41:26.614Z,1014.47
2023-05-14T05:41:57.099Z,1014.48
2023-05-14T05:42:28.129Z,1014.48
2023-05-14T05:42:58.616Z,1014.48
2023-05-14T05:43:29.603Z,1014.48
2023-05-14T05:44:00.592Z,1014.48
2023-05-14T05:44:31.591Z,1014.48
2023-05-14T05:45:02.585Z,1014.47
2023-05-14T05:45:33.605Z,1014.48
2023-05-14T05:46:04.152Z,1014.48
2023-05-14T05:46:34.672Z,1014.49
2023-05-14T05:47:05.272Z,1014.49
2023-05-14T05:47:35.882Z,1014.50
2023-05-14T05:48:06.388Z,1014.51
2023-05-14T05:48:37.334Z,1014.52
2023-05-14T05:49:08.353Z,1014.53
2023-05-14T05:49:38.845Z,1014.54
2023-05-14T05:50:09.910Z,1014.55
2023-05-14T05:50:40.385Z,1014.55
2023-05-14T05:51:11.394Z,1014.56
2023-05-14T05:51:41.915Z,1014.56
2023-05-14T05:52:12.396Z,1014.56
2023-05-14T05:52:43.476Z,1014.57
2023-05-14T05:53:13.961Z,1014.57
2023-05-14T05:53:44.466Z,1014.57
2023-05-14T05:54:14.976Z,1014.58
2023-05-14T05:54:45.495Z,1014.59
2023-05-14T05:55:16.474Z,1014.59
2023-05-14T05:55:47.487Z,1014.60
2023-05-14T05:56:17.961Z,1014.60
2023-05-14T05:56:48.971Z,1014.61
2023-05-14T05:57:19.470Z,1014.62
2023-05-14T05:57:49.997Z,1014.62
2023-05-14T05:58:20.494Z,1014.63
2023-05-14T05:58:51.494Z,1014.64
2023-05-14T05:59:22.503Z,1014.65
2023-05-14T05:59:53.490Z,1014.65
2023-05-14T06:00:24.202Z,1014.66
2023-05-14T06:00:54.927Z,1014.66
2023-05-14T06:01:25.916Z,1014.67
2023-05-14T06:01:56.477Z,1014.67
2023-05-14T06:02:27.129Z,1014.68
2023-05-14T06:02:57.751Z,1014.68
2023-05-14T06:03:28.199Z,1014.69
2023-05-14T06:03:59.189Z,1014.69
2023-05-14T06:04:30.191Z,1014.70
2023-05-14T06:05:01.232Z,1014.70
2023-05-14T06:05:31.793Z,1014.71
2023-05-14T06:06:02.264Z,1014.71
2023-05-14T06:06:33.256Z,1014.72
2023-05-14T06:07:04.243Z,1014.73
2023-05-14T06:07:34.784Z,1014.74
2023-05-14T06:08:05.313Z,1014.74
2023-05-14T06:08:35.835Z,1014.75
2023-05-14T06:09:06.798Z,1014.76
2023-05-14T06:09:37.782Z,1014.76
2023-05-14T06:10:08.802Z,1014.77
2023-05-14T06:10:39.310Z,1014.78
2023-05-14T06:11:09.806Z,1014.79